Time;durP1;ratioP1;P1;durP2;ratioP2;P2;SDS_P1;SDS_P2;PMS_P1;PMS_P2;Temp;Humidity;BMP_temperature;BMP_pressure;BME280_temperature;BME280_humidity;BME280_pressure;Samples;Min_cycle;Max_cycle;Signal;HPM_P1;HPM_P2
2023/03/28 00:00:55;;;;;;;1999.90;999.90;;;2.40;99.90;;;;;;5014885;28;20181;-69
2023/03/28 00:03:21;;;;;;;1999.90;999.90;;;2.30;99.90;;;;;;5014497;28;20650;-67
2023/03/28 00:05:47;;;;;;;1999.90;999.90;;;2.90;99.90;;;;;;5014691;28;20169;-67
2023/03/28 00:08:15;;;;;;;1999.90;999.90;;;2.30;99.90;;;;;;5014547;28;20169;-67
2023/03/28 00:10:41;;;;;;;1999.90;999.90;;;2.30;99.90;;;;;;5014611;28;20250;-69
2023/03/28 00:13:07;;;;;;;1999.90;999.90;;;2.30;99.90;;;;;;5014591;28;20175;-69
2023/03/28 00:15:37;;;;;;;1999.90;999.90;;;2.30;99.90;;;;;;5014688;28;20177;-69
2023/03/28 00:18:04;;;;;;;1999.90;999.90;;;2.40;99.90;;;;;;5014333;28;20775;-68
2023/03/28 00:20:30;;;;;;;1999.90;999.90;;;2.20;99.90;;;;;;5014455;28;20588;-67
2023/03/28 00:22:56;;;;;;;1999.90;999.90;;;2.10;99.90;;;;;;5014315;28;20223;-67
2023/03/28 00:25:22;;;;;;;1999.90;999.90;;;2.10;99.90;;;;;;5014428;28;20212;-68
2023/03/28 00:27:48;;;;;;;1999.90;999.90;;;2.10;99.90;;;;;;5014178;28;20463;-68
2023/03/28 00:30:13;;;;;;;1999.90;999.90;;;2.10;99.90;;;;;;5014212;28;20696;-68
2023/03/28 00:32:39;;;;;;;1999.90;999.90;;;2.00;99.90;;;;;;5012724;28;20523;-68
2023/03/28 00:35:05;;;;;;;1999.90;999.90;;;2.00;99.90;;;;;;5014213;28;20545;-68
2023/03/28 00:37:31;;;;;;;1999.90;999.90;;;2.00;99.90;;;;;;5013946;28;20221;-68
2023/03/28 00:39:58;;;;;;;1999.90;999.90;;;1.90;99.90;;;;;;5014010;28;20544;-68
2023/03/28 00:42:24;;;;;;;1999.90;999.90;;;1.90;99.90;;;;;;5012763;28;20222;-68
2023/03/28 00:44:55;;;;;;;1999.90;999.90;;;1.90;99.90;;;;;;5013716;28;20239;-68
2023/03/28 00:47:44;;;;;;;1999.90;999.90;;;2.80;99.90;;;;;;5013758;28;20185;-68
2023/03/28 00:50:29;;;;;;;1999.90;999.90;;;1.90;99.90;;;;;;5013883;28;20169;-68
2023/03/28 00:53:20;;;;;;;1999.90;999.90;;;1.90;99.90;;;;;;5013708;28;20172;-68
2023/03/28 00:55:48;;;;;;;1999.90;999.90;;;1.90;99.90;;;;;;5013760;28;20161;-68
2023/03/28 00:58:22;;;;;;;1999.90;999.90;;;1.90;99.90;;;;;;5013534;28;20165;-69
2023/03/28 01:00:49;;;;;;;1999.90;999.90;;;1.90;99.90;;;;;;5012525;28;20200;-68
2023/03/28 01:03:17;;;;;;;1999.90;999.90;;;1.90;99.90;;;;;;5013497;28;20169;-68
2023/03/28 01:05:44;;;;;;;1999.90;999.90;;;1.40;99.90;;;;;;5013405;28;20553;-68
2023/03/28 01:08:18;;;;;;;1999.90;999.90;;;3.10;99.90;;;;;;5013337;28;20431;-69
2023/03/28 01:10:44;;;;;;;1999.90;999.90;;;1.80;99.90;;;;;;5013588;28;20172;-69
2023/03/28 01:13:14;;;;;;;1999.90;999.90;;;1.70;99.90;;;;;;5013220;28;20169;-69
2023/03/28 01:15:40;;;;;;;1999.90;999.90;;;1.80;99.90;;;;;;5013215;28;20404;-68
2023/03/28 01:18:09;;;;;;;1999.90;999.90;;;1.70;99.90;;;;;;5013357;28;20181;-68
2023/03/28 01:21:17;;;;;;;1999.90;999.90;;;1.70;99.90;;;;;;5013238;28;20168;-68
2023/03/28 01:24:21;;;;;;;1999.90;999.90;;;1.70;99.90;;;;;;5012363;28;20255;-67
2023/03/28 01:26:48;;;;;;;1999.90;999.90;;;1.80;99.90;;;;;;5012949;28;20187;-67
2023/03/28 01:29:36;;;;;;;1999.90;999.90;;;1.70;99.90;;;;;;5012451;28;20749;-68
2023/03/28 01:32:08;;;;;;;1999.90;999.90;;;1.70;99.90;;;;;;5013223;28;20172;-68
2023/03/28 01:34:51;;;;;;;1999.90;999.90;;;1.70;99.90;;;;;;5012904;28;20169;-68
2023/03/28 01:37:38;;;;;;;1999.90;999.90;;;1.70;99.90;;;;;;5012798;28;20197;-69
2023/03/28 01:40:24;;;;;;;1999.90;999.90;;;1.70;99.90;;;;;;5012974;28;20165;-68
2023/03/28 01:42:53;;;;;;;1999.90;999.90;;;1.70;99.90;;;;;;5012805;28;20593;-68
2023/03/28 01:45:47;;;;;;;1999.90;999.90;;;1.70;99.90;;;;;;5012799;28;20741;-68
2023/03/28 01:48:40;;;;;;;1999.90;999.90;;;1.70;99.90;;;;;;5012910;28;20563;-67
2023/03/28 01:51:40;;;;;;;1999.90;999.90;;;1.70;99.90;;;;;;5012835;28;20223;-68
2023/03/28 01:54:23;;;;;;;1999.90;999.90;;;1.70;99.90;;;;;;5012341;28;20189;-68
2023/03/28 01:57:01;;;;;;;1999.90;999.90;;;1.70;99.90;;;;;;5012586;28;20185;-68
2023/03/28 01:59:55;;;;;;;1999.90;999.90;;;1.80;99.90;;;;;;5012687;28;20169;-68
2023/03/28 02:02:31;;;;;;;1999.90;999.90;;;1.70;99.90;;;;;;5011998;28;20189;-69
2023/03/28 02:04:59;;;;;;;1999.90;999.90;;;1.80;99.90;;;;;;5012540;28;20205;-68
2023/03/28 02:07:26;;;;;;;1999.90;999.90;;;1.80;99.90;;;;;;5012438;28;20211;-67
2023/03/28 02:09:53;;;;;;;1999.90;999.90;;;1.80;99.90;;;;;;5012544;28;20176;-68
2023/03/28 02:12:34;;;;;;;1999.90;999.90;;;2.80;99.90;;;;;;5012465;28;20161;-68
2023/03/28 02:15:04;;;;;;;1999.90;999.90;;;1.70;99.90;;;;;;5012654;28;20204;-68
2023/03/28 02:17:33;;;;;;;1999.90;999.90;;;1.80;99.90;;;;;;5066295;22;20228;-72
2023/03/28 02:20:13;;;;;;;1999.90;999.90;;;1.70;99.90;;;;;;5032179;28;20183;-73
2023/03/28 02:22:50;;;;;;;1999.90;999.90;;;1.70;99.90;;;;;;5032172;28;20168;-70
2023/03/28 02:25:17;;;;;;;1999.90;999.90;;;1.70;99.90;;;;;;5032089;28;20196;-76
2023/03/28 02:27:45;;;;;;;1999.90;999.90;;;1.70;99.90;;;;;;5031897;28;20275;-74
2023/03/28 02:30:11;;;;;;;1999.90;999.90;;;1.70;99.90;;;;;;5032104;28;20211;-73
2023/03/28 02:32:37;;;;;;;1999.90;999.90;;;1.60;99.90;;;;;;5032273;28;20165;-73
2023/03/28 02:35:04;;;;;;;1999.90;999.90;;;1.60;99.90;;;;;;5032093;28;20647;-74
2023/03/28 02:37:48;;;;;;;1999.90;999.90;;;1.60;99.90;;;;;;5031858;28;20600;-76
2023/03/28 02:40:32;;;;;;;1999.90;999.90;;;1.60;99.90;;;;;;5033335;28;20171;-70
2023/03/28 02:43:33;;;;;;;1999.90;999.90;;;1.60;99.90;;;;;;5035733;28;20172;-72
2023/03/28 02:46:19;;;;;;;1999.90;999.90;;;1.60;99.90;;;;;;5012399;28;20254;-71
2023/03/28 02:48:45;;;;;;;1999.90;999.90;;;1.50;99.90;;;;;;5035917;28;20160;-70
2023/03/28 02:51:30;;;;;;;1999.90;999.90;;;1.50;99.90;;;;;;5035869;28;20179;-72
2023/03/28 02:53:59;;;;;;;1999.90;999.90;;;1.50;99.90;;;;;;5035813;28;20222;-73
2023/03/28 02:56:32;;;;;;;1999.90;999.90;;;1.50;99.90;;;;;;5035555;28;20196;-71
2023/03/28 02:59:10;;;;;;;1999.90;999.90;;;1.50;99.90;;;;;;5035693;28;20164;-73
2023/03/28 03:01:39;;;;;;;1999.90;999.90;;;1.50;99.90;;;;;;5035675;28;20173;-71
2023/03/28 03:04:05;;;;;;;1999.90;999.90;;;1.50;99.90;;;;;;5035424;28;20345;-72
2023/03/28 03:06:34;;;;;;;1999.90;999.90;;;1.50;99.90;;;;;;5035522;28;20267;-71
2023/03/28 03:09:00;;;;;;;1999.90;999.90;;;1.50;99.90;;;;;;5035622;28;20399;-73
2023/03/28 03:11:27;;;;;;;1999.90;999.90;;;1.50;99.90;;;;;;5035514;28;20299;-71
2023/03/28 03:13:53;;;;;;;1999.90;999.90;;;1.60;99.90;;;;;;5035363;28;20172;-71
2023/03/28 03:16:19;;;;;;;1999.90;999.90;;;1.50;99.90;;;;;;5035153;28;20222;-71
2023/03/28 03:18:45;;;;;;;1999.90;999.90;;;1.60;99.90;;;;;;5035445;28;20180;-71
2023/03/28 03:21:11;;;;;;;1999.90;999.90;;;1.60;99.90;;;;;;5035329;28;20970;-71
2023/03/28 03:23:36;;;;;;;1999.90;999.90;;;1.60;99.90;;;;;;5034855;28;20226;-71
2023/03/28 03:26:02;;;;;;;1999.90;999.90;;;1.50;99.90;;;;;;5034990;28;20739;-73
2023/03/28 03:28:28;;;;;;;1999.90;999.90;;;1.60;99.90;;;;;;5035265;28;20169;-73
2023/03/28 03:30:53;;;;;;;1999.90;999.90;;;1.60;99.90;;;;;;5035144;28;20238;-73
2023/03/28 03:33:19;;;;;;;1999.90;999.90;;;1.60;99.90;;;;;;5034879;28;20173;-73
2023/03/28 03:35:45;;;;;;;1999.90;999.90;;;1.60;99.90;;;;;;5034953;28;20168;-73
2023/03/28 03:38:11;;;;;;;1999.90;999.90;;;1.60;99.90;;;;;;5034693;28;20196;-73
2023/03/28 03:40:37;;;;;;;1999.90;999.90;;;1.60;99.90;;;;;;5034865;28;20757;-73
2023/03/28 03:43:03;;;;;;;1999.90;999.90;;;1.50;99.90;;;;;;5034831;28;20234;-73
2023/03/28 03:45:28;;;;;;;1999.90;999.90;;;1.50;99.90;;;;;;5034861;28;20700;-73
2023/03/28 03:47:54;;;;;;;1999.90;999.90;;;1.50;99.90;;;;;;5034639;28;20184;-73
2023/03/28 03:50:20;;;;;;;1999.90;999.90;;;1.50;99.90;;;;;;5034762;28;20658;-73
2023/03/28 03:52:45;;;;;;;1999.90;999.90;;;1.50;99.90;;;;;;5033744;28;20175;-73
2023/03/28 03:55:11;;;;;;;1999.90;999.90;;;1.40;99.90;;;;;;5034600;28;20530;-73
2023/03/28 03:57:36;;;;;;;1999.90;999.90;;;1.40;99.90;;;;;;5034502;28;20322;-73
2023/03/28 04:00:10;;;;;;;1999.90;999.90;;;1.40;99.90;;;;;;5034632;28;20179;-74
2023/03/28 04:02:35;;;;;;;1999.90;999.90;;;1.40;99.90;;;;;;5034490;28;20188;-72
2023/03/28 04:05:01;;;;;;;1999.90;999.90;;;1.40;99.90;;;;;;5034371;28;20192;-74
2023/03/28 04:07:27;;;;;;;1999.90;999.90;;;1.40;99.90;;;;;;5034539;28;20246;-72
2023/03/28 04:09:52;;;;;;;1999.90;999.90;;;1.40;99.90;;;;;;5034563;28;20169;-74
2023/03/28 04:12:18;;;;;;;1999.90;999.90;;;1.40;99.90;;;;;;5034368;28;20523;-74
2023/03/28 04:14:43;;;;;;;1999.90;999.90;;;1.40;99.90;;;;;;5034102;28;20176;-74
2023/03/28 04:17:12;;;;;;;1999.90;999.90;;;1.40;99.90;;;;;;5033950;28;20208;-74
2023/03/28 04:19:38;;;;;;;1999.90;999.90;;;1.40;99.90;;;;;;5034132;28;20248;-74
2023/03/28 04:22:06;;;;;;;1999.90;999.90;;;1.50;99.90;;;;;;5034212;28;20195;-74
2023/03/28 04:24:35;;;;;;;1999.90;999.90;;;1.40;99.90;;;;;;5033949;28;20207;-74
2023/03/28 04:27:02;;;;;;;1999.90;999.90;;;1.40;99.90;;;;;;5033942;28;20188;-74
2023/03/28 04:29:30;;;;;;;1999.90;999.90;;;1.40;99.90;;;;;;5034048;28;20529;-74
2023/03/28 04:31:59;;;;;;;1999.90;999.90;;;1.40;99.90;;;;;;5034121;28;20168;-74
2023/03/28 04:34:28;;;;;;;1999.90;999.90;;;1.40;99.90;;;;;;5033734;28;20199;-74
2023/03/28 04:37:00;;;;;;;1999.90;999.90;;;1.30;99.90;;;;;;5033756;28;20200;-74
2023/03/28 04:39:27;;;;;;;1999.90;999.90;;;1.40;99.90;;;;;;5033805;28;20204;-74
2023/03/28 04:41:54;;;;;;;1999.90;999.90;;;1.30;99.90;;;;;;5033903;28;20259;-74
2023/03/28 04:44:20;;;;;;;1999.90;999.90;;;1.30;99.90;;;;;;5033500;28;20215;-73
2023/03/28 04:46:47;;;;;;;1999.90;999.90;;;1.30;99.90;;;;;;5033460;28;20190;-73
2023/03/28 04:49:13;;;;;;;1999.90;999.90;;;1.30;99.90;;;;;;5033646;28;20643;-73
2023/03/28 04:51:39;;;;;;;1999.90;999.90;;;1.30;99.90;;;;;;5033724;28;20291;-73
2023/03/28 04:54:05;;;;;;;1999.90;999.90;;;1.30;99.90;;;;;;5033350;28;20689;-73
2023/03/28 04:56:30;;;;;;;1999.90;999.90;;;1.30;99.90;;;;;;5033309;28;20188;-73
2023/03/28 04:58:56;;;;;;;1999.90;999.90;;;1.30;99.90;;;;;;5033421;28;20175;-73
2023/03/28 05:01:24;;;;;;;1999.90;999.90;;;1.30;99.90;;;;;;5033333;28;20165;-73
2023/03/28 05:03:50;;;;;;;1999.90;999.90;;;1.30;99.90;;;;;;5032209;28;20215;-73
2023/03/28 05:06:16;;;;;;;1999.90;999.90;;;1.30;99.90;;;;;;5033181;28;20673;-73
2023/03/28 05:08:42;;;;;;;1999.90;999.90;;;1.30;99.90;;;;;;5033112;28;20204;-73
2023/03/28 05:11:09;;;;;;;1999.90;999.90;;;1.30;99.90;;;;;;5034281;28;20179;-72
2023/03/28 05:13:35;;;;;;;1999.90;999.90;;;1.20;99.90;;;;;;5034495;28;20403;-72
2023/03/28 05:16:00;;;;;;;1999.90;999.90;;;1.20;99.90;;;;;;5033826;28;20592;-72
2023/03/28 05:18:26;;;;;;;1999.90;999.90;;;1.20;99.90;;;;;;5034247;28;20637;-73
2023/03/28 05:20:51;;;;;;;1999.90;999.90;;;1.20;99.90;;;;;;5033526;28;20188;-74
2023/03/28 05:23:17;;;;;;;1999.90;999.90;;;1.20;99.90;;;;;;5032775;28;20207;-73
2023/03/28 05:25:48;;;;;;;1999.90;999.90;;;1.20;99.90;;;;;;5032725;28;20223;-74
2023/03/28 05:28:13;;;;;;;1999.90;999.90;;;1.20;99.90;;;;;;5032844;28;20191;-75
2023/03/28 05:30:39;;;;;;;1999.90;999.90;;;1.20;99.90;;;;;;5032836;28;20176;-75
2023/03/28 05:33:04;;;;;;;1999.90;999.90;;;1.20;99.90;;;;;;5033645;28;20164;-74
2023/03/28 05:35:30;;;;;;;1999.90;999.90;;;1.20;99.90;;;;;;5032765;28;20164;-73
2023/03/28 05:37:55;;;;;;;1999.90;999.90;;;1.20;99.90;;;;;;5032460;28;20184;-74
2023/03/28 05:40:21;;;;;;;1999.90;999.90;;;1.20;99.90;;;;;;5032619;28;20259;-75
2023/03/28 05:42:47;;;;;;;1999.90;999.90;;;1.20;99.90;;;;;;5032195;28;20168;-73
2023/03/28 05:45:13;;;;;;;1999.90;999.90;;;1.20;99.90;;;;;;5032486;28;20188;-73
2023/03/28 05:47:38;;;;;;;1999.90;999.90;;;1.30;99.90;;;;;;5032541;28;20980;-75
2023/03/28 05:50:06;;;;;;;1999.90;999.90;;;1.30;99.90;;;;;;5032558;28;20580;-73
2023/03/28 05:52:31;;;;;;;1999.90;999.90;;;1.30;99.90;;;;;;5033201;28;20197;-73
2023/03/28 05:54:57;;;;;;;1999.90;999.90;;;1.30;99.90;;;;;;5032891;28;20177;-73
2023/03/28 05:57:24;;;;;;;1999.90;999.90;;;1.40;99.90;;;;;;5033216;28;20286;-72
2023/03/28 05:59:50;;;;;;;1999.90;999.90;;;1.40;99.90;;;;;;5032584;28;20191;-74
2023/03/28 06:02:17;;;;;;;1999.90;999.90;;;1.40;99.90;;;;;;5032831;28;20184;-72
2023/03/28 06:04:43;;;;;;;1999.90;999.90;;;1.50;99.90;;;;;;5033793;28;20783;-72
2023/03/28 06:07:10;;;;;;;1999.90;999.90;;;1.50;99.90;;;;;;5032937;28;20192;-75
2023/03/28 06:09:36;;;;;;;1999.90;999.90;;;1.50;99.90;;;;;;5032442;28;20676;-75
2023/03/28 06:12:03;;;;;;;1999.90;999.90;;;1.60;99.90;;;;;;5032338;28;20176;-75
2023/03/28 06:14:30;;;;;;;1999.90;999.90;;;1.60;99.90;;;;;;5031750;28;20179;-73
2023/03/28 06:16:56;;;;;;;1999.90;999.90;;;1.60;99.90;;;;;;5031969;28;20208;-73
2023/03/28 06:19:21;;;;;;;1999.90;999.90;;;1.70;99.90;;;;;;5032264;28;20168;-73
2023/03/28 06:21:47;;;;;;;1999.90;999.90;;;1.80;99.90;;;;;;5032715;28;20175;-75
2023/03/28 06:24:13;;;;;;;1999.90;999.90;;;1.80;99.90;;;;;;5032950;28;20199;-75
2023/03/28 06:26:40;;;;;;;1999.90;999.90;;;1.80;99.90;;;;;;5032404;28;20874;-74
2023/03/28 06:29:05;;;;;;;1999.90;999.90;;;1.80;99.90;;;;;;5032455;28;20161;-74
2023/03/28 06:31:31;;;;;;;1999.90;999.90;;;1.90;99.90;;;;;;5032346;28;20453;-74
2023/03/28 06:33:57;;;;;;;1999.90;999.90;;;1.90;99.90;;;;;;5031873;28;20198;-75
2023/03/28 06:36:23;;;;;;;1999.90;999.90;;;1.90;99.90;;;;;;5031885;28;20291;-74
2023/03/28 06:38:49;;;;;;;1999.90;999.90;;;2.00;99.90;;;;;;5032068;28;20278;-74
2023/03/28 06:41:15;;;;;;;1999.90;999.90;;;2.10;99.90;;;;;;5031938;28;20251;-74
2023/03/28 06:43:41;;;;;;;1999.90;999.90;;;2.10;99.90;;;;;;5031475;28;20402;-75
2023/03/28 06:46:08;;;;;;;1999.90;999.90;;;2.20;99.90;;;;;;5031697;28;20168;-75
2023/03/28 06:48:34;;;;;;;1999.90;999.90;;;2.30;99.90;;;;;;5031018;28;20552;-75
2023/03/28 06:51:00;;;;;;;1999.90;999.90;;;2.30;99.90;;;;;;5031813;28;20177;-73
2023/03/28 06:53:26;;;;;;;1999.90;999.90;;;2.40;99.90;;;;;;5031544;28;20442;-73
2023/03/28 06:55:52;;;;;;;1999.90;999.90;;;2.50;99.90;;;;;;5031605;28;20642;-73
2023/03/28 06:58:19;;;;;;;1999.90;999.90;;;2.60;99.90;;;;;;5031633;28;20207;-73
2023/03/28 07:00:45;;;;;;;1999.90;999.90;;;2.70;99.90;;;;;;5031834;28;20184;-73
2023/03/28 07:03:11;;;;;;;1999.90;999.90;;;2.80;99.90;;;;;;5031495;28;20407;-73
2023/03/28 07:05:38;;;;;;;1999.90;999.90;;;3.00;99.90;;;;;;5031532;28;20541;-73
2023/03/28 07:08:05;;;;;;;1999.90;999.90;;;3.10;99.90;;;;;;5031584;28;20868;-73
2023/03/28 07:10:31;;;;;;;1999.90;999.90;;;3.20;99.90;;;;;;5031587;28;20172;-73
2023/03/28 07:12:56;;;;;;;1999.90;999.90;;;3.30;99.90;;;;;;5031447;28;20215;-74
2023/03/28 07:15:22;;;;;;;1999.90;999.90;;;3.50;99.90;;;;;;5031577;28;20609;-73
2023/03/28 07:17:48;;;;;;;1999.90;999.90;;;3.50;99.90;;;;;;5031267;28;20697;-73
2023/03/28 07:20:14;;;;;;;1999.90;999.90;;;3.70;99.90;;;;;;5031512;28;20539;-73
2023/03/28 07:22:40;;;;;;;1999.90;999.90;;;3.70;99.90;;;;;;5031265;28;20403;-73
2023/03/28 07:25:06;;;;;;;1999.90;999.90;;;3.70;99.90;;;;;;5031445;28;20279;-73
2023/03/28 07:27:32;;;;;;;1999.90;999.90;;;3.80;99.90;;;;;;5033309;28;20195;-75
2023/03/28 07:29:58;;;;;;;1999.90;999.90;;;3.80;99.90;;;;;;5035274;28;20168;-75
2023/03/28 07:32:23;;;;;;;1999.90;999.90;;;3.80;99.90;;;;;;5035493;28;20165;-74
2023/03/28 07:34:49;;;;;;;1999.90;999.90;;;3.90;99.90;;;;;;5035560;28;20176;-75
2023/03/28 07:37:15;;;;;;;1999.90;999.90;;;3.90;99.90;;;;;;5034983;28;20188;-75
2023/03/28 07:39:42;;;;;;;1999.90;999.90;;;3.90;99.90;;;;;;5034986;28;20441;-75
2023/03/28 07:42:12;;;;;;;1999.90;999.90;;;3.90;99.90;;;;;;5051780;28;20286;-75
2023/03/28 07:44:38;;;;;;;1999.90;999.90;;;4.10;99.90;;;;;;5051832;28;20211;-74
2023/03/28 07:47:04;;;;;;;1999.90;999.90;;;4.20;99.90;;;;;;5050213;28;20271;-74
2023/03/28 07:49:31;;;;;;;1999.90;999.90;;;4.30;99.90;;;;;;5034372;28;20514;-75
2023/03/28 07:51:57;;;;;;;1999.90;999.90;;;4.60;99.90;;;;;;5033910;28;20465;-74
2023/03/28 07:54:23;;;;;;;1999.90;999.90;;;4.60;99.90;;;;;;5034124;28;20499;-75
2023/03/28 07:56:49;;;;;;;1999.90;999.90;;;4.70;99.90;;;;;;5034734;28;20847;-75
2023/03/28 07:59:15;;;;;;;1999.90;999.90;;;4.90;99.90;;;;;;5034023;28;20410;-75
2023/03/28 08:01:42;;;;;;;1999.90;999.90;;;4.90;99.90;;;;;;5034310;28;20410;-73
2023/03/28 08:04:10;;;;;;;1999.90;999.90;;;4.90;99.90;;;;;;5033915;28;20817;-73
2023/03/28 08:06:37;;;;;;;1999.90;999.90;;;5.00;99.90;;;;;;5033484;28;20431;-73
2023/03/28 08:09:05;;;;;;;1999.90;999.90;;;5.00;99.90;;;;;;5033928;28;20414;-70
2023/03/28 08:11:31;;;;;;;1999.90;999.90;;;6.40;99.90;;;;;;5034152;28;20403;-73
2023/03/28 08:13:57;;;;;;;1999.90;999.90;;;5.10;99.90;;;;;;5033341;28;20773;-72
2023/03/28 08:16:24;;;;;;;1999.90;999.90;;;5.20;99.90;;;;;;5033357;28;20478;-73
2023/03/28 08:18:49;;;;;;;1999.90;999.90;;;5.30;99.90;;;;;;5034752;28;20465;-71
2023/03/28 08:21:15;;;;;;;1999.90;999.90;;;5.40;99.90;;;;;;5030955;28;20423;-69
2023/03/28 08:23:41;;;;;;;1999.90;999.90;;;5.40;99.90;;;;;;5039178;28;20183;-68
2023/03/28 08:26:06;;;;;;;1999.90;999.90;;;5.70;99.90;;;;;;5048818;28;20180;-69
2023/03/28 08:28:34;;;;;;;1999.90;999.90;;;5.60;99.90;;;;;;5042813;28;20187;-68
2023/03/28 08:31:00;;;;;;;1999.90;999.90;;;5.60;99.90;;;;;;5032949;28;20178;-69
2023/03/28 08:33:27;;;;;;;1999.90;999.90;;;5.70;99.90;;;;;;5032632;28;20407;-65
2023/03/28 08:35:54;;;;;;;1999.90;999.90;;;5.90;99.90;;;;;;5032958;28;20407;-70
2023/03/28 08:38:20;;;;;;;1999.90;999.90;;;6.00;99.90;;;;;;5032745;28;20514;-69
2023/03/28 08:41:21;;;;;;;1999.90;999.90;;;6.10;99.90;;;;;;5033146;28;20495;-69
2023/03/28 08:44:01;;;;;;;1999.90;999.90;;;6.20;99.90;;;;;;5013376;28;20522;-70
2023/03/28 08:46:28;;;;;;;1999.90;999.90;;;6.40;99.90;;;;;;5032851;28;20505;-69
2023/03/28 08:48:55;;;;;;;1999.90;999.90;;;6.60;99.90;;;;;;5032777;28;20453;-71
2023/03/28 08:51:34;;;;;;;1999.90;999.90;;;6.60;99.90;;;;;;5033030;28;20419;-69
2023/03/28 08:54:14;;;;;;;1999.90;999.90;;;6.60;99.90;;;;;;5032708;28;20442;-69
2023/03/28 08:56:48;;;;;;;1999.90;999.90;;;6.70;99.90;;;;;;5030278;28;20470;-68
2023/03/28 08:59:17;;;;;;;1999.90;999.90;;;6.70;99.90;;;;;;5033075;28;20954;-68
2023/03/28 09:01:43;;;;;;;1999.90;999.90;;;6.70;99.90;;;;;;5032588;28;20498;-68
2023/03/28 09:04:33;;;;;;;1999.90;999.90;;;6.70;99.90;;;;;;5031930;28;20545;-72
2023/03/28 09:07:06;;;;;;;1999.90;999.90;;;6.90;99.90;;;;;;5032474;28;20485;-72
2023/03/28 09:09:42;;;;;;;1999.90;999.90;;;7.00;99.90;;;;;;5032754;28;20463;-70
2023/03/28 09:12:17;;;;;;;1999.90;999.90;;;7.10;99.90;;;;;;5032221;28;20904;-70
2023/03/28 09:15:07;;;;;;;1999.90;999.90;;;7.30;99.90;;;;;;5032161;28;20387;-68
2023/03/28 09:17:47;;;;;;;1999.90;999.90;;;7.30;99.90;;;;;;5032208;28;20816;-68
2023/03/28 09:20:41;;;;;;;1999.90;999.90;;;7.40;99.90;;;;;;5032145;28;20391;-68
2023/03/28 09:23:50;;;;;;;1999.90;999.90;;;7.50;99.90;;;;;;5026604;28;20419;-67
2023/03/28 09:26:22;;;;;;;1999.90;999.90;;;7.70;99.90;;;;;;5010756;28;20920;-69
2023/03/28 09:29:00;;;;;;;1999.90;999.90;;;7.80;99.90;;;;;;5032440;28;20415;-70
2023/03/28 09:31:31;;;;;;;1999.90;999.90;;;7.90;99.90;;;;;;5032266;28;20378;-67
2023/03/28 09:33:58;;;;;;;1999.90;999.90;;;8.00;99.90;;;;;;5031412;28;20396;-69
2023/03/28 09:36:32;;;;;;;1999.90;999.90;;;8.10;99.90;;;;;;5031199;28;20831;-67
2023/03/28 09:39:02;;;;;;;1999.90;999.90;;;8.20;99.90;;;;;;5032504;28;20417;-66
2023/03/28 09:41:48;;;;;;;1999.90;999.90;;;8.30;99.90;;;;;;5031711;28;20430;-70
2023/03/28 09:44:18;;;;;;;1999.90;999.90;;;8.50;99.90;;;;;;5032011;28;20489;-71
2023/03/28 09:46:47;;;;;;;1999.90;999.90;;;8.50;99.90;;;;;;5031872;28;20450;-71
2023/03/28 09:49:22;;;;;;;1999.90;999.90;;;8.70;99.90;;;;;;5031331;28;20408;-70
2023/03/28 09:51:51;;;;;;;1999.90;999.90;;;8.80;99.90;;;;;;5032265;28;20379;-71
2023/03/28 09:54:27;;;;;;;1999.90;999.90;;;9.00;99.90;;;;;;5031617;28;20391;-71
2023/03/28 09:56:57;;;;;;;1999.90;999.90;;;9.00;99.90;;;;;;5031345;28;20922;-71
2023/03/28 09:59:25;;;;;;;1999.90;999.90;;;9.10;99.90;;;;;;5031807;28;20408;-71
2023/03/28 10:01:53;;;;;;;1999.90;999.90;;;9.20;99.90;;;;;;5031537;28;20408;-72
2023/03/28 10:04:40;;;;;;;1999.90;999.90;;;9.50;99.90;;;;;;5031276;28;20454;-68
2023/03/28 10:07:09;;;;;;;1999.90;999.90;;;9.40;99.90;;;;;;5031173;28;20936;-68
2023/03/28 10:09:53;;;;;;;1999.90;999.90;;;9.60;99.90;;;;;;5031511;28;20405;-68
2023/03/28 10:12:30;;;;;;;1999.90;999.90;;;9.40;96.00;;;;;;5031138;28;20409;-67
2023/03/28 10:14:56;;;;;;;1999.90;999.90;;;9.30;99.90;;;;;;5031616;28;20418;-68
2023/03/28 10:17:33;;;;;;;1999.90;999.90;;;9.40;99.80;;;;;;5031270;28;20981;-68
2023/03/28 10:20:06;;;;;;;1999.90;999.90;;;9.50;96.70;;;;;;5031167;28;20306;-69
2023/03/28 10:22:36;;;;;;;1999.90;999.90;;;9.60;90.60;;;;;;5031578;28;20402;-71
2023/03/28 10:25:04;;;;;;;1999.90;999.90;;;9.60;82.70;;;;;;5031286;28;20602;-72
2023/03/28 10:27:33;;;;;;;1999.90;999.90;;;9.50;89.80;;;;;;5031185;28;20427;-72
2023/03/28 10:30:17;;;;;;;1999.90;999.90;;;9.60;82.20;;;;;;5031221;28;20414;-71
2023/03/28 10:32:43;;;;;;;1999.90;999.90;;;9.80;83.70;;;;;;5030663;28;20386;-70
2023/03/28 10:35:26;;;;;;;1999.90;999.90;;;10.10;79.80;;;;;;5031297;28;20788;-71
2023/03/28 10:37:55;;;;;;;1999.90;999.90;;;10.30;77.50;;;;;;5031445;28;20562;-70
2023/03/28 10:40:25;;;;;;;1999.90;999.90;;;10.30;66.90;;;;;;5030881;28;20410;-68
2023/03/28 10:42:51;;;;;;;1999.90;999.90;;;10.30;51.60;;;;;;5031137;28;20892;-69
2023/03/28 10:45:19;;;;;;;1999.90;999.90;;;10.20;58.40;;;;;;5030873;28;20461;-69
2023/03/28 10:47:48;;;;;;;1999.90;999.90;;;10.20;70.40;;;;;;5030532;28;20202;-69
2023/03/28 10:50:29;;;;;;;1999.90;999.90;;;10.30;71.70;;;;;;5031558;28;20755;-69
2023/03/28 10:52:58;;;;;;;1999.90;999.90;;;10.40;59.70;;;;;;5030725;28;20417;-69
2023/03/28 10:55:36;;;;;;;1999.90;999.90;;;10.70;55.80;;;;;;5030531;28;20405;-70
2023/03/28 10:58:16;;;;;;;1999.90;999.90;;;10.80;57.80;;;;;;5031403;28;20517;-70
2023/03/28 11:01:10;;;;;;;1999.90;999.90;;;10.80;50.80;;;;;;5031859;28;20489;-70
2023/03/28 11:03:45;;;;;;;1999.90;999.90;;;10.90;52.00;;;;;;5023619;28;20424;-70
2023/03/28 11:06:27;;;;;;;1999.90;999.90;;;11.00;46.80;;;;;;5035042;28;20481;-70
2023/03/28 11:08:55;;;;;;;1999.90;999.90;;;11.00;47.40;;;;;;5035143;28;20470;-69
2023/03/28 11:11:57;;;;;;;1999.90;999.90;;;11.00;46.70;;;;;;5034742;28;21147;-68
2023/03/28 11:14:50;;;;;;;1999.90;999.90;;;11.00;44.40;;;;;;5034275;28;20444;-68
2023/03/28 11:17:21;;;;;;;1999.90;999.90;;;11.10;39.40;;;;;;5034336;28;20953;-69
2023/03/28 11:19:57;;;;;;;1999.90;999.90;;;11.20;46.70;;;;;;5034834;28;20410;-68
2023/03/28 11:22:47;;;;;;;1999.90;999.90;;;11.10;42.10;;;;;;5034893;28;20394;-68
2023/03/28 11:25:28;;;;;;;1999.90;999.90;;;11.00;45.80;;;;;;5034491;28;20445;-68
2023/03/28 11:28:32;;;;;;;1999.90;999.90;;;11.00;41.30;;;;;;5034817;28;20424;-69
2023/03/28 11:31:00;;;;;;;1999.90;999.90;;;10.80;36.90;;;;;;5034549;28;20406;-68
2023/03/28 11:33:45;;;;;;;1999.90;999.90;;;10.80;42.50;;;;;;5033751;28;20410;-71
2023/03/28 11:36:24;;;;;;;1999.90;999.90;;;10.80;32.00;;;;;;5034220;28;20454;-71
2023/03/28 11:38:56;;;;;;;1999.90;999.90;;;10.70;47.20;;;;;;5034642;28;20408;-71
2023/03/28 11:41:29;;;;;;;1999.90;999.90;;;10.70;39.80;;;;;;5033815;28;20402;-71
2023/03/28 11:44:02;;;;;;;1999.90;999.90;;;10.80;48.20;;;;;;5034021;28;20486;-71
2023/03/28 11:46:40;;;;;;;1999.90;999.90;;;10.70;42.00;;;;;;5033808;28;20417;-69
2023/03/28 11:49:11;;;;;;;1999.90;999.90;;;10.60;39.70;;;;;;5034573;28;20750;-68
2023/03/28 11:51:52;;;;;;;1999.90;999.90;;;10.80;41.30;;;;;;5034486;28;20481;-68
2023/03/28 11:54:24;;;;;;;1999.90;999.90;;;11.20;36.50;;;;;;5033189;28;20406;-68
2023/03/28 11:57:17;;;;;;;1999.90;999.90;;;11.70;34.30;;;;;;5034301;28;20434;-68
2023/03/28 11:59:59;;;;;;;1999.90;999.90;;;12.30;39.30;;;;;;5033916;28;20403;-69
2023/03/28 12:02:46;;;;;;;1999.90;999.90;;;13.00;24.80;;;;;;5033502;28;20429;-69
2023/03/28 12:05:47;;;;;;;1999.90;999.90;;;13.50;23.60;;;;;;5034080;28;20456;-69
2023/03/28 12:08:56;;;;;;;1999.90;999.90;;;14.10;24.60;;;;;;5034004;28;20429;-69
2023/03/28 12:11:32;;;;;;;1999.90;999.90;;;14.30;22.90;;;;;;4972443;28;20434;-69
2023/03/28 12:14:04;;;;;;;1999.90;999.90;;;14.10;20.60;;;;;;4971580;28;20436;-69
2023/03/28 12:16:35;;;;;;;1999.90;999.90;;;14.10;17.90;;;;;;5009065;28;20458;-68
2023/03/28 12:19:05;;;;;;;1999.90;999.90;;;14.20;15.30;;;;;;5033491;28;20760;-69
2023/03/28 12:21:42;;;;;;;1999.90;999.90;;;14.00;14.00;;;;;;5033523;28;20416;-68
2023/03/28 12:24:40;;;;;;;1999.90;999.90;;;13.80;13.30;;;;;;5032971;28;20456;-69
2023/03/28 12:27:26;;;;;;;1999.90;999.90;;;13.80;13.50;;;;;;5033576;28;20421;-69